sensor_id;sensor_type;location;lat;lon;timestamp;pressure;altitude;pressure_sealevel;temperature;humidity
6599;BME280;3335;43.198;27.918;2023-03-03T00:00:37;148882.88;;;6.44;100.00
6599;BME280;3335;43.198;27.918;2023-03-03T00:03:06;148885.38;;;6.45;100.00
6599;BME280;3335;43.198;27.918;2023-03-03T00:05:34;148876.66;;;6.41;100.00
6599;BME280;3335;43.198;27.918;2023-03-03T00:08:01;148880.38;;;6.43;100.00
6599;BME280;3335;43.198;27.918;2023-03-03T00:10:28;148885.38;;;6.45;100.00
6599;BME280;3335;43.198;27.918;2023-03-03T00:12:56;148887.88;;;6.46;100.00
6599;BME280;3335;43.198;27.918;2023-03-03T00:15:25;148875.41;;;6.41;100.00
6599;BME280;3335;43.198;27.918;2023-03-03T00:17:53;148900.34;;;6.51;100.00
6599;BME280;3335;43.198;27.918;2023-03-03T00:20:32;148838.06;;;6.26;100.00
6599;BME280;3335;43.198;27.918;2023-03-03T00:23:12;148880.38;;;6.43;100.00
6599;BME280;3335;43.198;27.918;2023-03-03T00:25:43;148882.88;;;6.44;100.00
6599;BME280;3335;43.198;27.918;2023-03-03T00:28:22;148882.88;;;6.44;100.00
6599;BME280;3335;43.198;27.918;2023-03-03T00:30:50;148862.97;;;6.36;100.00
6599;BME280;3335;43.198;27.918;2023-03-03T00:33:24;148885.38;;;6.45;100.00
6599;BME280;3335;43.198;27.918;2023-03-03T00:35:54;148885.38;;;6.45;100.00
6599;BME280;3335;43.198;27.918;2023-03-03T00:38:21;148895.34;;;6.49;100.00
6599;BME280;3335;43.198;27.918;2023-03-03T00:40:49;148899.09;;;6.50;100.00
6599;BME280;3335;43.198;27.918;2023-03-03T00:43:21;148905.28;;;6.53;100.00
6599;BME280;3335;43.198;27.918;2023-03-03T00:45:50;148855.47;;;6.33;100.00
6599;BME280;3335;43.198;27.918;2023-03-03T00:48:22;148901.53;;;6.51;100.00
6599;BME280;3335;43.198;27.918;2023-03-03T00:50:50;148892.84;;;6.48;100.00
6599;BME280;3335;43.198;27.918;2023-03-03T00:53:19;148896.59;;;6.49;100.00
6599;BME280;3335;43.198;27.918;2023-03-03T00:55:47;148877.88;;;6.42;100.00
6599;BME280;3335;43.198;27.918;2023-03-03T00:58:15;148891.59;;;6.47;100.00
6599;BME280;3335;43.198;27.918;2023-03-03T01:00:44;148907.78;;;6.54;100.00
6599;BME280;3335;43.198;27.918;2023-03-03T01:03:13;148900.34;;;6.51;100.00
6599;BME280;3335;43.198;27.918;2023-03-03T01:05:41;148892.84;;;6.48;100.00
6599;BME280;3335;43.198;27.918;2023-03-03T01:08:08;148897.84;;;6.50;100.00
6599;BME280;3335;43.198;27.918;2023-03-03T01:10:38;148891.59;;;6.47;100.00
6599;BME280;3335;43.198;27.918;2023-03-03T01:13:06;148887.88;;;6.46;100.00
6599;BME280;3335;43.198;27.918;2023-03-03T01:15:34;148902.78;;;6.52;100.00
6599;BME280;3335;43.198;27.918;2023-03-03T01:18:02;148897.84;;;6.50;100.00
6599;BME280;3335;43.198;27.918;2023-03-03T01:20:29;148905.28;;;6.53;100.00
6599;BME280;3335;43.198;27.918;2023-03-03T01:22:56;148875.41;;;6.41;100.00
6599;BME280;3335;43.198;27.918;2023-03-03T01:25:23;148891.59;;;6.47;100.00
6599;BME280;3335;43.198;27.918;2023-03-03T01:27:50;148895.34;;;6.49;100.00
6599;BME280;3335;43.198;27.918;2023-03-03T01:30:17;148875.41;;;6.41;100.00
6599;BME280;3335;43.198;27.918;2023-03-03T01:32:44;148900.34;;;6.51;100.00
6599;BME280;3335;43.198;27.918;2023-03-03T01:35:13;148906.53;;;6.53;100.00
6599;BME280;3335;43.198;27.918;2023-03-03T01:37:40;148895.34;;;6.49;100.00
6599;BME280;3335;43.198;27.918;2023-03-03T01:40:12;148882.88;;;6.44;100.00
6599;BME280;3335;43.198;27.918;2023-03-03T01:42:41;148848.00;;;6.30;100.00
6599;BME280;3335;43.198;27.918;2023-03-03T01:45:13;148900.34;;;6.51;100.00
6599;BME280;3335;43.198;27.918;2023-03-03T01:47:43;148748.41;;;5.89;100.00
6599;BME280;3335;43.198;27.918;2023-03-03T01:50:14;148907.78;;;6.54;100.00
6599;BME280;3335;43.198;27.918;2023-03-03T01:52:45;148904.03;;;6.52;100.00
6599;BME280;3335;43.198;27.918;2023-03-03T01:55:16;148865.41;;;6.37;100.00
6599;BME280;3335;43.198;27.918;2023-03-03T01:57:48;148907.78;;;6.54;100.00
6599;BME280;3335;43.198;27.918;2023-03-03T02:00:18;148904.03;;;6.52;100.00
6599;BME280;3335;43.198;27.918;2023-03-03T02:02:45;148922.75;;;6.60;100.00
6599;BME280;3335;43.198;27.918;2023-03-03T02:05:15;148932.69;;;6.64;100.00
6599;BME280;3335;43.198;27.918;2023-03-03T02:07:43;148910.28;;;6.55;100.00
6599;BME280;3335;43.198;27.918;2023-03-03T02:10:12;148902.78;;;6.52;100.00
6599;BME280;3335;43.198;27.918;2023-03-03T02:12:41;148880.38;;;6.43;100.00
6599;BME280;3335;43.198;27.918;2023-03-03T02:15:17;148907.78;;;6.54;100.00
6599;BME280;3335;43.198;27.918;2023-03-03T02:17:45;148897.84;;;6.50;100.00
6599;BME280;3335;43.198;27.918;2023-03-03T02:20:19;148887.88;;;6.46;100.00
6599;BME280;3335;43.198;27.918;2023-03-03T02:22:55;148880.38;;;6.43;100.00
6599;BME280;3335;43.198;27.918;2023-03-03T02:25:29;148887.88;;;6.46;100.00
6599;BME280;3335;43.198;27.918;2023-03-03T02:27:59;148891.59;;;6.47;100.00
6599;BME280;3335;43.198;27.918;2023-03-03T02:30:26;148887.88;;;6.46;100.00
6599;BME280;3335;43.198;27.918;2023-03-03T02:32:53;148894.09;;;6.48;100.00
6599;BME280;3335;43.198;27.918;2023-03-03T02:35:29;148877.88;;;6.42;100.00
6599;BME280;3335;43.198;27.918;2023-03-03T02:38:01;148887.88;;;6.46;100.00
6599;BME280;3335;43.198;27.918;2023-03-03T02:40:33;148910.28;;;6.55;100.00
6599;BME280;3335;43.198;27.918;2023-03-03T02:43:05;148902.78;;;6.52;100.00
6599;BME280;3335;43.198;27.918;2023-03-03T02:45:32;148901.53;;;6.51;100.00
6599;BME280;3335;43.198;27.918;2023-03-03T02:47:59;148892.84;;;6.48;100.00
6599;BME280;3335;43.198;27.918;2023-03-03T02:50:26;148890.34;;;6.47;100.00
6599;BME280;3335;43.198;27.918;2023-03-03T02:52:53;148877.88;;;6.42;100.00
6599;BME280;3335;43.198;27.918;2023-03-03T02:55:20;148872.94;;;6.40;100.00
6599;BME280;3335;43.198;27.918;2023-03-03T02:57:47;148862.97;;;6.36;100.00
6599;BME280;3335;43.198;27.918;2023-03-03T03:00:15;148871.66;;;6.39;100.00
6599;BME280;3335;43.198;27.918;2023-03-03T03:02:43;148875.41;;;6.41;100.00
6599;BME280;3335;43.198;27.918;2023-03-03T03:05:09;148882.88;;;6.44;100.00
6599;BME280;3335;43.198;27.918;2023-03-03T03:07:36;148877.88;;;6.42;100.00
6599;BME280;3335;43.198;27.918;2023-03-03T03:10:04;148861.72;;;6.35;100.00
6599;BME280;3335;43.198;27.918;2023-03-03T03:12:31;148864.22;;;6.36;100.00
6599;BME280;3335;43.198;27.918;2023-03-03T03:14:58;148875.41;;;6.41;100.00
6599;BME280;3335;43.198;27.918;2023-03-03T03:17:26;148890.34;;;6.47;100.00
6599;BME280;3335;43.198;27.918;2023-03-03T03:19:53;148899.09;;;6.50;100.00
6599;BME280;3335;43.198;27.918;2023-03-03T03:22:20;148882.88;;;6.44;100.00
6599;BME280;3335;43.198;27.918;2023-03-03T03:24:47;148897.84;;;6.50;100.00
6599;BME280;3335;43.198;27.918;2023-03-03T03:27:14;148879.13;;;6.42;100.00
6599;BME280;3335;43.198;27.918;2023-03-03T03:29:40;148882.88;;;6.44;100.00
6599;BME280;3335;43.198;27.918;2023-03-03T03:32:07;148853.00;;;6.32;100.00
6599;BME280;3335;43.198;27.918;2023-03-03T03:34:36;148875.41;;;6.41;100.00
6599;BME280;3335;43.198;27.918;2023-03-03T03:37:02;148862.97;;;6.36;100.00
6599;BME280;3335;43.198;27.918;2023-03-03T03:39:29;148853.00;;;6.32;100.00
6599;BME280;3335;43.198;27.918;2023-03-03T03:41:56;148855.47;;;6.33;100.00
6599;BME280;3335;43.198;27.918;2023-03-03T03:44:23;148859.22;;;6.34;100.00
6599;BME280;3335;43.198;27.918;2023-03-03T03:46:50;148856.72;;;6.33;100.00
6599;BME280;3335;43.198;27.918;2023-03-03T03:49:17;148857.97;;;6.34;100.00
6599;BME280;3335;43.198;27.918;2023-03-03T03:51:45;148857.97;;;6.34;100.00
6599;BME280;3335;43.198;27.918;2023-03-03T03:54:12;148874.19;;;6.40;100.00
6599;BME280;3335;43.198;27.918;2023-03-03T03:56:39;148874.19;;;6.40;100.00
6599;BME280;3335;43.198;27.918;2023-03-03T03:59:06;148835.56;;;6.25;100.00
6599;BME280;3335;43.198;27.918;2023-03-03T04:01:33;148836.81;;;6.25;100.00
6599;BME280;3335;43.198;27.918;2023-03-03T04:04:00;148848.00;;;6.30;100.00
6599;BME280;3335;43.198;27.918;2023-03-03T04:06:27;148860.47;;;6.35;100.00
6599;BME280;3335;43.198;27.918;2023-03-03T04:08:56;148857.97;;;6.34;100.00
6599;BME280;3335;43.198;27.918;2023-03-03T04:11:23;148857.97;;;6.34;100.00
6599;BME280;3335;43.198;27.918;2023-03-03T04:13:50;148853.00;;;6.32;100.00
6599;BME280;3335;43.198;27.918;2023-03-03T04:16:17;148843.00;;;6.28;100.00
6599;BME280;3335;43.198;27.918;2023-03-03T04:18:44;148849.25;;;6.30;100.00
6599;BME280;3335;43.198;27.918;2023-03-03T04:21:11;148778.31;;;6.01;100.00
6599;BME280;3335;43.198;27.918;2023-03-03T04:23:38;148803.19;;;6.11;100.00
6599;BME280;3335;43.198;27.918;2023-03-03T04:26:07;148833.06;;;6.24;100.00
6599;BME280;3335;43.198;27.918;2023-03-03T04:28:35;148831.81;;;6.23;100.00
6599;BME280;3335;43.198;27.918;2023-03-03T04:31:02;148833.06;;;6.24;100.00
6599;BME280;3335;43.198;27.918;2023-03-03T04:33:29;148833.06;;;6.24;100.00
6599;BME280;3335;43.198;27.918;2023-03-03T04:35:56;148823.09;;;6.20;100.00
6599;BME280;3335;43.198;27.918;2023-03-03T04:38:23;148840.56;;;6.27;100.00
6599;BME280;3335;43.198;27.918;2023-03-03T04:40:50;148848.00;;;6.30;100.00
6599;BME280;3335;43.198;27.918;2023-03-03T04:43:19;148836.81;;;6.25;100.00
6599;BME280;3335;43.198;27.918;2023-03-03T04:45:46;148838.06;;;6.26;100.00
6599;BME280;3335;43.198;27.918;2023-03-03T04:48:13;148849.25;;;6.30;100.00
6599;BME280;3335;43.198;27.918;2023-03-03T04:50:41;148862.97;;;6.36;100.00
6599;BME280;3335;43.198;27.918;2023-03-03T04:53:08;148845.50;;;6.29;100.00
6599;BME280;3335;43.198;27.918;2023-03-03T04:55:35;148855.47;;;6.33;100.00
6599;BME280;3335;43.198;27.918;2023-03-03T04:58:03;148849.25;;;6.30;100.00
6599;BME280;3335;43.198;27.918;2023-03-03T05:00:31;148857.97;;;6.34;100.00
6599;BME280;3335;43.198;27.918;2023-03-03T05:02:58;148860.47;;;6.35;100.00
6599;BME280;3335;43.198;27.918;2023-03-03T05:05:25;148855.47;;;6.33;100.00
6599;BME280;3335;43.198;27.918;2023-03-03T05:07:52;148838.06;;;6.26;100.00
6599;BME280;3335;43.198;27.918;2023-03-03T05:10:19;148840.56;;;6.27;100.00
6599;BME280;3335;43.198;27.918;2023-03-03T05:12:46;148851.75;;;6.31;100.00
6599;BME280;3335;43.198;27.918;2023-03-03T05:15:13;148844.25;;;6.28;100.00
6599;BME280;3335;43.198;27.918;2023-03-03T05:17:41;148860.47;;;6.35;100.00
6599;BME280;3335;43.198;27.918;2023-03-03T05:20:09;148867.94;;;6.38;100.00
6599;BME280;3335;43.198;27.918;2023-03-03T05:22:37;148872.94;;;6.40;100.00
6599;BME280;3335;43.198;27.918;2023-03-03T05:25:05;148661.25;;;5.54;100.00
6599;BME280;3335;43.198;27.918;2023-03-03T05:27:33;148859.22;;;6.34;100.00
6599;BME280;3335;43.198;27.918;2023-03-03T05:30:00;148880.38;;;6.43;100.00
6599;BME280;3335;43.198;27.918;2023-03-03T05:32:27;148855.47;;;6.33;100.00
6599;BME280;3335;43.198;27.918;2023-03-03T05:34:55;148875.41;;;6.41;100.00
6599;BME280;3335;43.198;27.918;2023-03-03T05:37:22;148889.06;;;6.46;100.00
6599;BME280;3335;43.198;27.918;2023-03-03T05:39:49;148897.84;;;6.50;100.00
6599;BME280;3335;43.198;27.918;2023-03-03T05:42:17;148885.38;;;6.45;100.00
6599;BME280;3335;43.198;27.918;2023-03-03T05:44:44;148880.38;;;6.43;100.00
6599;BME280;3335;43.198;27.918;2023-03-03T05:47:11;148892.84;;;6.48;100.00
6599;BME280;3335;43.198;27.918;2023-03-03T05:49:38;148905.28;;;6.53;100.00
6599;BME280;3335;43.198;27.918;2023-03-03T05:52:06;148884.13;;;6.44;100.00
6599;BME280;3335;43.198;27.918;2023-03-03T05:54:33;148909.03;;;6.54;100.00
6599;BME280;3335;43.198;27.918;2023-03-03T05:57:00;148940.16;;;6.67;100.00
6599;BME280;3335;43.198;27.918;2023-03-03T05:59:27;148932.69;;;6.64;100.00
6599;BME280;3335;43.198;27.918;2023-03-03T06:01:54;148930.19;;;6.63;100.00
6599;BME280;3335;43.198;27.918;2023-03-03T06:04:21;148925.19;;;6.61;100.00
6599;BME280;3335;43.198;27.918;2023-03-03T06:06:48;148900.34;;;6.51;100.00
6599;BME280;3335;43.198;27.918;2023-03-03T06:09:16;148874.19;;;6.40;100.00
6599;BME280;3335;43.198;27.918;2023-03-03T06:11:44;148907.78;;;6.54;100.00
6599;BME280;3335;43.198;27.918;2023-03-03T06:14:11;148923.94;;;6.60;100.00
6599;BME280;3335;43.198;27.918;2023-03-03T06:16:38;148920.25;;;6.59;100.00
6599;BME280;3335;43.198;27.918;2023-03-03T06:19:05;148909.03;;;6.54;100.00
6599;BME280;3335;43.198;27.918;2023-03-03T06:21:32;148910.28;;;6.55;100.00
6599;BME280;3335;43.198;27.918;2023-03-03T06:23:59;148930.19;;;6.63;100.00
6599;BME280;3335;43.198;27.918;2023-03-03T06:26:27;148940.16;;;6.67;100.00
6599;BME280;3335;43.198;27.918;2023-03-03T06:28:54;148917.75;;;6.58;100.00
6599;BME280;3335;43.198;27.918;2023-03-03T06:31:21;148921.50;;;6.59;100.00
6599;BME280;3335;43.198;27.918;2023-03-03T06:33:48;148895.34;;;6.49;100.00
6599;BME280;3335;43.198;27.918;2023-03-03T06:36:15;148967.56;;;6.78;100.00
6599;BME280;3335;43.198;27.918;2023-03-03T06:38:43;148972.53;;;6.80;100.00
6599;BME280;3335;43.198;27.918;2023-03-03T06:41:10;148987.50;;;6.86;100.00
6599;BME280;3335;43.198;27.918;2023-03-03T06:43:39;148976.28;;;6.82;100.00
6599;BME280;3335;43.198;27.918;2023-03-03T06:46:05;148972.53;;;6.80;100.00
6599;BME280;3335;43.198;27.918;2023-03-03T06:48:32;148985.00;;;6.85;100.00
6599;BME280;3335;43.198;27.918;2023-03-03T06:51:01;148986.25;;;6.86;100.00
6599;BME280;3335;43.198;27.918;2023-03-03T06:53:30;149001.19;;;6.92;100.00
6599;BME280;3335;43.198;27.918;2023-03-03T06:55:57;149021.13;;;7.00;100.00
6599;BME280;3335;43.198;27.918;2023-03-03T06:58:26;148975.03;;;6.81;100.00
6599;BME280;3335;43.198;27.918;2023-03-03T07:00:57;149023.63;;;7.01;100.00
6599;BME280;3335;43.198;27.918;2023-03-03T07:03:26;148770.84;;;5.98;100.00
6599;BME280;3335;43.198;27.918;2023-03-03T07:05:54;149009.91;;;6.95;100.00
6599;BME280;3335;43.198;27.918;2023-03-03T07:08:23;149029.81;;;7.03;100.00
6599;BME280;3335;43.198;27.918;2023-03-03T07:10:51;149009.91;;;6.95;100.00
6599;BME280;3335;43.198;27.918;2023-03-03T07:13:20;149032.34;;;7.04;100.00
6599;BME280;3335;43.198;27.918;2023-03-03T07:15:48;149063.50;;;7.17;100.00
6599;BME280;3335;43.198;27.918;2023-03-03T07:18:33;149072.22;;;7.21;100.00
6599;BME280;3335;43.198;27.918;2023-03-03T07:21:12;149058.50;;;7.15;100.00
6599;BME280;3335;43.198;27.918;2023-03-03T07:23:40;149029.81;;;7.03;100.00
6599;BME280;3335;43.198;27.918;2023-03-03T07:26:11;149047.28;;;7.11;100.00
6599;BME280;3335;43.198;27.918;2023-03-03T07:28:40;149092.13;;;7.29;100.00
6599;BME280;3335;43.198;27.918;2023-03-03T07:31:30;149090.88;;;7.28;100.00
6599;BME280;3335;43.198;27.918;2023-03-03T07:34:04;149119.56;;;7.40;100.00
6599;BME280;3335;43.198;27.918;2023-03-03T07:36:40;149115.81;;;7.38;100.00
6599;BME280;3335;43.198;27.918;2023-03-03T07:39:27;149108.34;;;7.35;100.00
6599;BME280;3335;43.198;27.918;2023-03-03T07:42:01;149118.31;;;7.39;100.00
6599;BME280;3335;43.198;27.918;2023-03-03T07:44:36;149144.50;;;7.50;100.00
6599;BME280;3335;43.198;27.918;2023-03-03T07:47:16;149203.06;;;7.74;100.00
6599;BME280;3335;43.198;27.918;2023-03-03T07:49:47;149211.78;;;7.77;100.00
6599;BME280;3335;43.198;27.918;2023-03-03T07:52:29;149209.28;;;7.76;100.00
6599;BME280;3335;43.198;27.918;2023-03-03T07:54:59;149209.28;;;7.76;100.00
6599;BME280;3335;43.198;27.918;2023-03-03T07:57:28;149221.75;;;7.81;100.00
6599;BME280;3335;43.198;27.918;2023-03-03T08:02:53;149246.69;;;7.91;100.00
6599;BME280;3335;43.198;27.918;2023-03-03T08:05:32;149255.41;;;7.95;100.00
6599;BME280;3335;43.198;27.918;2023-03-03T08:08:26;149221.75;;;7.81;100.00
6599;BME280;3335;43.198;27.918;2023-03-03T08:10:55;149314.00;;;8.19;100.00
6599;BME280;3335;43.198;27.918;2023-03-03T08:13:24;149337.72;;;8.28;100.00
6599;BME280;3335;43.198;27.918;2023-03-03T08:15:57;149323.97;;;8.23;100.00
6599;BME280;3335;43.198;27.918;2023-03-03T08:18:28;149341.50;;;8.30;100.00
6599;BME280;3335;43.198;27.918;2023-03-03T08:20:59;149371.41;;;8.42;100.00
6599;BME280;3335;43.198;27.918;2023-03-03T08:23:26;149383.91;;;8.47;100.00
6599;BME280;3335;43.198;27.918;2023-03-03T08:25:54;149355.22;;;8.36;100.00
6599;BME280;3335;43.198;27.918;2023-03-03T08:28:21;149408.84;;;8.57;100.00
6599;BME280;3335;43.198;27.918;2023-03-03T08:30:48;149451.25;;;8.74;100.00
6599;BME280;3335;43.198;27.918;2023-03-03T08:33:15;149476.19;;;8.85;100.00
6599;BME280;3335;43.198;27.918;2023-03-03T08:35:42;149488.66;;;8.90;100.00
6599;BME280;3335;43.198;27.918;2023-03-03T08:38:12;149518.63;;;9.02;100.00
6599;BME280;3335;43.198;27.918;2023-03-03T08:40:40;149447.53;;;8.73;100.00
6599;BME280;3335;43.198;27.918;2023-03-03T08:43:07;149628.44;;;9.46;100.00
6599;BME280;3335;43.198;27.918;2023-03-03T08:45:35;149663.38;;;9.60;100.00
6599;BME280;3335;43.198;27.918;2023-03-03T08:48:02;149648.44;;;9.54;100.00
6599;BME280;3335;43.198;27.918;2023-03-03T08:50:29;149718.34;;;9.83;100.00
6599;BME280;3335;43.198;27.918;2023-03-03T08:52:56;149633.44;;;9.48;100.00
6599;BME280;3335;43.198;27.918;2023-03-03T08:55:24;149628.44;;;9.46;100.00
6599;BME280;3335;43.198;27.918;2023-03-03T08:57:51;149589.78;;;9.31;100.00
6599;BME280;3335;43.198;27.918;2023-03-03T09:00:19;149567.31;;;9.21;100.00
6599;BME280;3335;43.198;27.918;2023-03-03T09:02:47;149559.78;;;9.18;100.00
6599;BME280;3335;43.198;27.918;2023-03-03T09:05:15;149556.09;;;9.17;100.00
6599;BME280;3335;43.198;27.918;2023-03-03T09:07:43;149633.44;;;9.48;100.00
6599;BME280;3335;43.198;27.918;2023-03-03T09:10:12;149668.38;;;9.62;100.00
6599;BME280;3335;43.198;27.918;2023-03-03T09:12:43;149623.47;;;9.44;100.00
6599;BME280;3335;43.198;27.918;2023-03-03T09:15:19;149648.44;;;9.54;100.00
6599;BME280;3335;43.198;27.918;2023-03-03T09:17:47;149719.59;;;9.83;100.00
6599;BME280;3335;43.198;27.918;2023-03-03T09:20:30;149755.75;;;9.98;100.00
6599;BME280;3335;43.198;27.918;2023-03-03T09:22:59;149823.28;;;10.25;100.00
6599;BME280;3335;43.198;27.918;2023-03-03T09:25:42;149817.00;;;10.23;100.00
6599;BME280;3335;43.198;27.918;2023-03-03T09:28:22;149754.56;;;9.97;100.00
6599;BME280;3335;43.198;27.918;2023-03-03T09:30:50;149774.53;;;10.05;100.00
6599;BME280;3335;43.198;27.918;2023-03-03T09:33:23;149708.38;;;9.79;100.00
6599;BME280;3335;43.198;27.918;2023-03-03T09:35:51;149725.81;;;9.86;100.00
6599;BME280;3335;43.198;27.918;2023-03-03T09:38:27;149768.25;;;10.03;100.00
6599;BME280;3335;43.198;27.918;2023-03-03T09:41:36;149787.00;;;10.10;100.00
6599;BME280;3335;43.198;27.918;2023-03-03T09:44:21;149780.75;;;10.08;100.00
6599;BME280;3335;43.198;27.918;2023-03-03T09:47:03;149798.25;;;10.15;100.00
6599;BME280;3335;43.198;27.918;2023-03-03T09:49:35;149810.78;;;10.20;100.00
6599;BME280;3335;43.198;27.918;2023-03-03T09:52:21;149803.25;;;10.17;100.00
6599;BME280;3335;43.198;27.918;2023-03-03T09:55:01;149823.28;;;10.25;100.00
6599;BME280;3335;43.198;27.918;2023-03-03T09:57:42;149788.25;;;10.11;100.00
6599;BME280;3335;43.198;27.918;2023-03-03T10:00:22;149768.25;;;10.03;100.00
6599;BME280;3335;43.198;27.918;2023-03-03T10:03:11;149698.34;;;9.75;100.00
6599;BME280;3335;43.198;27.918;2023-03-03T10:05:46;149709.56;;;9.79;100.00
6599;BME280;3335;43.198;27.918;2023-03-03T10:08:31;149728.31;;;9.87;100.00
6599;BME280;3335;43.198;27.918;2023-03-03T10:11:11;149715.84;;;9.82;100.00
6599;BME280;3335;43.198;27.918;2023-03-03T10:13:49;149748.28;;;9.95;100.00
6599;BME280;3335;43.198;27.918;2023-03-03T10:16:36;149753.31;;;9.97;100.00
6599;BME280;3335;43.198;27.918;2023-03-03T10:19:17;149733.28;;;9.89;100.00
6599;BME280;3335;43.198;27.918;2023-03-03T10:22:00;149725.81;;;9.86;100.00
6599;BME280;3335;43.198;27.918;2023-03-03T10:24:35;149780.75;;;10.08;100.00
6599;BME280;3335;43.198;27.918;2023-03-03T10:27:23;149740.81;;;9.92;100.00
6599;BME280;3335;43.198;27.918;2023-03-03T10:30:02;149663.38;;;9.60;100.00
6599;BME280;3335;43.198;27.918;2023-03-03T10:32:46;149713.34;;;9.81;100.00
6599;BME280;3335;43.198;27.918;2023-03-03T10:35:29;149687.09;;;9.70;100.00
6599;BME280;3335;43.198;27.918;2023-03-03T10:38:22;149668.38;;;9.62;100.00
6599;BME280;3335;43.198;27.918;2023-03-03T10:40:55;149667.16;;;9.62;100.00
6599;BME280;3335;43.198;27.918;2023-03-03T10:43:38;149754.56;;;9.97;100.00
6599;BME280;3335;43.198;27.918;2023-03-03T10:46:32;149678.38;;;9.66;100.00
6599;BME280;3335;43.198;27.918;2023-03-03T10:49:29;149790.78;;;10.12;100.00
6599;BME280;3335;43.198;27.918;2023-03-03T10:52:07;149813.28;;;10.21;100.00
6599;BME280;3335;43.198;27.918;2023-03-03T10:54:57;149805.78;;;10.18;100.00
6599;BME280;3335;43.198;27.918;2023-03-03T10:57:33;149793.22;;;10.13;100.00
6599;BME280;3335;43.198;27.918;2023-03-03T11:00:14;149860.75;;;10.40;100.00
6599;BME280;3335;43.198;27.918;2023-03-03T11:02:56;149860.75;;;10.40;100.00
6599;BME280;3335;43.198;27.918;2023-03-03T11:05:32;149835.78;;;10.30;100.00
6599;BME280;3335;43.198;27.918;2023-03-03T11:08:07;149873.19;;;10.45;100.00
6599;BME280;3335;43.198;27.918;2023-03-03T11:10:47;149918.22;;;10.64;100.00
6599;BME280;3335;43.198;27.918;2023-03-03T11:13:21;149908.19;;;10.60;100.00
6599;BME280;3335;43.198;27.918;2023-03-03T11:16:12;149943.22;;;10.74;100.00
6599;BME280;3335;43.198;27.918;2023-03-03T11:18:51;149866.97;;;10.43;100.00
6599;BME280;3335;43.198;27.918;2023-03-03T11:21:27;149764.53;;;10.01;100.00
6599;BME280;3335;43.198;27.918;2023-03-03T11:24:04;149785.75;;;10.10;100.00
6599;BME280;3335;43.198;27.918;2023-03-03T11:29:58;149813.28;;;10.21;100.00
6599;BME280;3335;43.198;27.918;2023-03-03T11:32:37;149893.22;;;10.53;100.00
6599;BME280;3335;43.198;27.918;2023-03-03T11:35:19;149990.63;;;10.93;100.00
6599;BME280;3335;43.198;27.918;2023-03-03T11:38:07;150085.63;;;11.31;100.00
6599;BME280;3335;43.198;27.918;2023-03-03T11:40:45;150208.19;;;11.81;100.00
6599;BME280;3335;43.198;27.918;2023-03-03T11:43:17;150221.97;;;11.87;100.00
6599;BME280;3335;43.198;27.918;2023-03-03T11:45:48;150171.88;;;11.66;100.00
6599;BME280;3335;43.198;27.918;2023-03-03T11:48:21;150158.13;;;11.61;100.00
6599;BME280;3335;43.198;27.918;2023-03-03T11:50:56;150105.66;;;11.39;100.00
6599;BME280;3335;43.198;27.918;2023-03-03T11:53:35;150105.66;;;11.39;100.00
6599;BME280;3335;43.198;27.918;2023-03-03T11:56:13;150105.66;;;11.39;100.00
6599;BME280;3335;43.198;27.918;2023-03-03T11:58:50;150155.63;;;11.60;100.00
6599;BME280;3335;43.198;27.918;2023-03-03T12:01:22;150183.13;;;11.71;100.00
6599;BME280;3335;43.198;27.918;2023-03-03T12:03:56;150193.19;;;11.75;100.00
6599;BME280;3335;43.198;27.918;2023-03-03T12:06:32;150198.19;;;11.77;100.00
6599;BME280;3335;43.198;27.918;2023-03-03T12:09:26;150223.22;;;11.87;100.00
6599;BME280;3335;43.198;27.918;2023-03-03T12:12:02;150238.19;;;11.93;100.00
6599;BME280;3335;43.198;27.918;2023-03-03T12:14:52;150201.94;;;11.78;100.00
6599;BME280;3335;43.198;27.918;2023-03-03T12:17:36;150140.66;;;11.54;100.00
6599;BME280;3335;43.198;27.918;2023-03-03T12:20:12;150134.38;;;11.51;100.00
6599;BME280;3335;43.198;27.918;2023-03-03T12:22:51;150145.63;;;11.56;100.00
6599;BME280;3335;43.198;27.918;2023-03-03T12:25:30;150134.38;;;11.51;100.00
6599;BME280;3335;43.198;27.918;2023-03-03T12:28:03;150120.63;;;11.46;100.00
6599;BME280;3335;43.198;27.918;2023-03-03T12:31:05;150049.38;;;11.17;100.00
6599;BME280;3335;43.198;27.918;2023-03-03T12:33:49;150000.69;;;10.97;100.00
6599;BME280;3335;43.198;27.918;2023-03-03T12:36:29;149961.94;;;10.81;100.00
6599;BME280;3335;43.198;27.918;2023-03-03T12:39:05;149968.16;;;10.84;100.00
6599;BME280;3335;43.198;27.918;2023-03-03T12:41:42;149918.22;;;10.64;100.00
6599;BME280;3335;43.198;27.918;2023-03-03T12:44:17;149823.28;;;10.25;100.00
6599;BME280;3335;43.198;27.918;2023-03-03T12:46:56;149783.25;;;10.09;100.00
6599;BME280;3335;43.198;27.918;2023-03-03T12:49:36;149820.78;;;10.24;100.00
6599;BME280;3335;43.198;27.918;2023-03-03T12:52:21;149814.50;;;10.22;100.00
6599;BME280;3335;43.198;27.918;2023-03-03T12:55:00;149763.28;;;10.01;100.00
6599;BME280;3335;43.198;27.918;2023-03-03T12:57:36;149817.00;;;10.23;100.00
6599;BME280;3335;43.198;27.918;2023-03-03T13:00:23;149810.78;;;10.20;100.00
6599;BME280;3335;43.198;27.918;2023-03-03T13:03:00;149868.22;;;10.43;100.00
6599;BME280;3335;43.198;27.918;2023-03-03T13:05:39;149930.72;;;10.69;100.00
6599;BME280;3335;43.198;27.918;2023-03-03T13:08:23;149968.16;;;10.84;100.00
6599;BME280;3335;43.198;27.918;2023-03-03T13:11:03;149903.22;;;10.58;100.00
6599;BME280;3335;43.198;27.918;2023-03-03T13:13:39;149923.19;;;10.66;100.00
6599;BME280;3335;43.198;27.918;2023-03-03T13:16:12;149923.19;;;10.66;100.00
6599;BME280;3335;43.198;27.918;2023-03-03T13:18:50;149842.00;;;10.33;100.00
6599;BME280;3335;43.198;27.918;2023-03-03T13:21:21;149847.00;;;10.35;100.00
6599;BME280;3335;43.198;27.918;2023-03-03T13:23:53;149814.50;;;10.22;100.00
6599;BME280;3335;43.198;27.918;2023-03-03T13:26:26;149718.34;;;9.83;100.00
6599;BME280;3335;43.198;27.918;2023-03-03T13:29:02;149758.28;;;9.99;100.00